sensor_id;sensor_type;location;lat;lon;timestamp;P1;durP1;ratioP1;P2;durP2;ratioP2
58250;SDS011;51449;51.676;5.812;2023-12-29T00:01:38;52.37;;;50.43;;
58250;SDS011;51449;51.676;5.812;2023-12-29T00:04:00;68.23;;;65.73;;
58250;SDS011;51449;51.676;5.812;2023-12-29T00:06:22;67.13;;;64.80;;
58250;SDS011;51449;51.676;5.812;2023-12-29T00:08:44;76.63;;;74.00;;
58250;SDS011;51449;51.676;5.812;2023-12-29T00:11:06;70.50;;;68.07;;
58250;SDS011;51449;51.676;5.812;2023-12-29T00:13:27;72.50;;;70.23;;
58250;SDS011;51449;51.676;5.812;2023-12-29T00:15:53;64.30;;;62.20;;
58250;SDS011;51449;51.676;5.812;2023-12-29T00:18:16;65.13;;;63.07;;
58250;SDS011;51449;51.676;5.812;2023-12-29T00:20:37;65.73;;;63.23;;
58250;SDS011;51449;51.676;5.812;2023-12-29T00:23:02;77.40;;;74.70;;
58250;SDS011;51449;51.676;5.812;2023-12-29T00:25:25;85.70;;;82.83;;
58250;SDS011;51449;51.676;5.812;2023-12-29T00:27:46;69.03;;;66.60;;
58250;SDS011;51449;51.676;5.812;2023-12-29T00:30:08;84.53;;;81.77;;
58250;SDS011;51449;51.676;5.812;2023-12-29T00:32:30;75.37;;;72.83;;
58250;SDS011;51449;51.676;5.812;2023-12-29T00:34:52;82.23;;;79.40;;
58250;SDS011;51449;51.676;5.812;2023-12-29T00:37:15;86.90;;;84.00;;
58250;SDS011;51449;51.676;5.812;2023-12-29T00:39:37;86.33;;;83.20;;
58250;SDS011;51449;51.676;5.812;2023-12-29T00:42:02;71.47;;;69.00;;
58250;SDS011;51449;51.676;5.812;2023-12-29T00:44:27;75.77;;;72.83;;
58250;SDS011;51449;51.676;5.812;2023-12-29T00:46:49;68.63;;;66.23;;
58250;SDS011;51449;51.676;5.812;2023-12-29T00:49:11;89.00;;;85.87;;
58250;SDS011;51449;51.676;5.812;2023-12-29T00:51:38;59.70;;;57.67;;
58250;SDS011;51449;51.676;5.812;2023-12-29T00:54:02;49.37;;;47.47;;
58250;SDS011;51449;51.676;5.812;2023-12-29T00:56:24;34.67;;;33.37;;
58250;SDS011;51449;51.676;5.812;2023-12-29T00:58:46;48.07;;;46.23;;
58250;SDS011;51449;51.676;5.812;2023-12-29T01:01:08;35.90;;;34.40;;
58250;SDS011;51449;51.676;5.812;2023-12-29T01:03:33;30.43;;;29.27;;
58250;SDS011;51449;51.676;5.812;2023-12-29T01:05:54;62.03;;;59.97;;
58250;SDS011;51449;51.676;5.812;2023-12-29T01:08:16;31.13;;;29.60;;
58250;SDS011;51449;51.676;5.812;2023-12-29T01:10:38;58.23;;;56.30;;
58250;SDS011;51449;51.676;5.812;2023-12-29T01:13:00;42.90;;;41.30;;
58250;SDS011;51449;51.676;5.812;2023-12-29T01:15:22;26.80;;;25.67;;
58250;SDS011;51449;51.676;5.812;2023-12-29T01:17:44;22.57;;;21.53;;
58250;SDS011;51449;51.676;5.812;2023-12-29T01:20:07;26.07;;;25.17;;
58250;SDS011;51449;51.676;5.812;2023-12-29T01:22:30;31.77;;;30.07;;
58250;SDS011;51449;51.676;5.812;2023-12-29T01:24:51;40.67;;;38.80;;
58250;SDS011;51449;51.676;5.812;2023-12-29T01:27:13;20.90;;;19.63;;
58250;SDS011;51449;51.676;5.812;2023-12-29T01:29:35;27.43;;;26.13;;
58250;SDS011;51449;51.676;5.812;2023-12-29T01:31:58;24.47;;;23.63;;
58250;SDS011;51449;51.676;5.812;2023-12-29T01:34:19;29.63;;;28.63;;
58250;SDS011;51449;51.676;5.812;2023-12-29T01:36:41;25.97;;;25.13;;
58250;SDS011;51449;51.676;5.812;2023-12-29T01:39:04;14.93;;;14.33;;
58250;SDS011;51449;51.676;5.812;2023-12-29T01:41:26;14.27;;;13.27;;
58250;SDS011;51449;51.676;5.812;2023-12-29T01:44:33;17.30;;;16.33;;
58250;SDS011;51449;51.676;5.812;2023-12-29T01:46:43;22.83;;;21.57;;
58250;SDS011;51449;51.676;5.812;2023-12-29T01:49:07;21.90;;;20.97;;
58250;SDS011;51449;51.676;5.812;2023-12-29T01:51:29;32.53;;;31.23;;
58250;SDS011;51449;51.676;5.812;2023-12-29T01:53:55;52.67;;;50.70;;
58250;SDS011;51449;51.676;5.812;2023-12-29T01:56:19;42.97;;;41.40;;
58250;SDS011;51449;51.676;5.812;2023-12-29T01:58:43;29.53;;;28.40;;
58250;SDS011;51449;51.676;5.812;2023-12-29T02:01:08;44.63;;;42.77;;
58250;SDS011;51449;51.676;5.812;2023-12-29T02:03:32;30.03;;;28.93;;
58250;SDS011;51449;51.676;5.812;2023-12-29T02:05:55;30.03;;;28.77;;
58250;SDS011;51449;51.676;5.812;2023-12-29T02:10:43;27.07;;;25.97;;
58250;SDS011;51449;51.676;5.812;2023-12-29T02:13:07;17.23;;;16.33;;
58250;SDS011;51449;51.676;5.812;2023-12-29T02:15:29;13.20;;;12.33;;
58250;SDS011;51449;51.676;5.812;2023-12-29T02:17:52;11.13;;;10.80;;
58250;SDS011;51449;51.676;5.812;2023-12-29T02:20:27;14.20;;;13.60;;
58250;SDS011;51449;51.676;5.812;2023-12-29T02:22:49;17.83;;;16.93;;
58250;SDS011;51449;51.676;5.812;2023-12-29T02:25:11;17.77;;;16.83;;
58250;SDS011;51449;51.676;5.812;2023-12-29T02:28:20;22.83;;;21.70;;
58250;SDS011;51449;51.676;5.812;2023-12-29T02:30:48;15.43;;;14.53;;
58250;SDS011;51449;51.676;5.812;2023-12-29T02:33:37;14.87;;;14.30;;
58250;SDS011;51449;51.676;5.812;2023-12-29T02:36:03;17.20;;;16.30;;
58250;SDS011;51449;51.676;5.812;2023-12-29T02:38:27;22.73;;;21.67;;
58250;SDS011;51449;51.676;5.812;2023-12-29T02:40:50;14.17;;;13.47;;
58250;SDS011;51449;51.676;5.812;2023-12-29T02:43:12;21.90;;;21.10;;
58250;SDS011;51449;51.676;5.812;2023-12-29T02:45:34;26.77;;;24.77;;
58250;SDS011;51449;51.676;5.812;2023-12-29T02:47:56;21.60;;;20.90;;
58250;SDS011;51449;51.676;5.812;2023-12-29T02:50:19;20.37;;;19.73;;
58250;SDS011;51449;51.676;5.812;2023-12-29T02:52:41;21.73;;;20.83;;
58250;SDS011;51449;51.676;5.812;2023-12-29T02:55:03;29.27;;;27.77;;
58250;SDS011;51449;51.676;5.812;2023-12-29T02:57:25;34.57;;;32.73;;
58250;SDS011;51449;51.676;5.812;2023-12-29T02:59:47;18.60;;;17.83;;
58250;SDS011;51449;51.676;5.812;2023-12-29T03:02:09;41.43;;;39.97;;
58250;SDS011;51449;51.676;5.812;2023-12-29T03:04:30;46.03;;;44.63;;
58250;SDS011;51449;51.676;5.812;2023-12-29T03:06:52;30.13;;;29.10;;
58250;SDS011;51449;51.676;5.812;2023-12-29T03:09:15;37.13;;;34.97;;
58250;SDS011;51449;51.676;5.812;2023-12-29T03:11:37;50.83;;;48.97;;
58250;SDS011;51449;51.676;5.812;2023-12-29T03:13:59;57.40;;;55.30;;
58250;SDS011;51449;51.676;5.812;2023-12-29T03:16:21;60.17;;;58.30;;
58250;SDS011;51449;51.676;5.812;2023-12-29T03:18:43;54.23;;;51.63;;
58250;SDS011;51449;51.676;5.812;2023-12-29T03:21:05;71.90;;;69.50;;
58250;SDS011;51449;51.676;5.812;2023-12-29T03:23:29;40.50;;;38.75;;
58250;SDS011;51449;51.676;5.812;2023-12-29T03:25:51;86.03;;;83.27;;
58250;SDS011;51449;51.676;5.812;2023-12-29T03:28:13;115.40;;;111.67;;
58250;SDS011;51449;51.676;5.812;2023-12-29T03:30:35;51.57;;;49.77;;
58250;SDS011;51449;51.676;5.812;2023-12-29T03:32:58;60.80;;;58.47;;
58250;SDS011;51449;51.676;5.812;2023-12-29T03:35:22;52.25;;;50.40;;
58250;SDS011;51449;51.676;5.812;2023-12-29T03:37:44;91.73;;;88.73;;
58250;SDS011;51449;51.676;5.812;2023-12-29T03:40:07;76.20;;;73.50;;
58250;SDS011;51449;51.676;5.812;2023-12-29T03:42:32;59.50;;;56.97;;
58250;SDS011;51449;51.676;5.812;2023-12-29T03:44:55;16.07;;;15.07;;
58250;SDS011;51449;51.676;5.812;2023-12-29T03:47:17;38.60;;;37.30;;
58250;SDS011;51449;51.676;5.812;2023-12-29T03:49:39;25.30;;;24.43;;
58250;SDS011;51449;51.676;5.812;2023-12-29T03:52:01;10.83;;;10.13;;
58250;SDS011;51449;51.676;5.812;2023-12-29T03:54:23;28.40;;;27.30;;
58250;SDS011;51449;51.676;5.812;2023-12-29T03:56:44;14.77;;;13.80;;
58250;SDS011;51449;51.676;5.812;2023-12-29T03:59:07;17.97;;;17.13;;
58250;SDS011;51449;51.676;5.812;2023-12-29T04:01:29;21.17;;;19.77;;
58250;SDS011;51449;51.676;5.812;2023-12-29T04:03:50;19.57;;;18.83;;
58250;SDS011;51449;51.676;5.812;2023-12-29T04:06:12;39.07;;;37.77;;
58250;SDS011;51449;51.676;5.812;2023-12-29T04:08:34;32.87;;;31.17;;
58250;SDS011;51449;51.676;5.812;2023-12-29T04:10:57;20.37;;;19.63;;
58250;SDS011;51449;51.676;5.812;2023-12-29T04:13:19;23.50;;;22.27;;
58250;SDS011;51449;51.676;5.812;2023-12-29T04:15:41;33.87;;;32.40;;
58250;SDS011;51449;51.676;5.812;2023-12-29T04:18:03;22.90;;;21.50;;
58250;SDS011;51449;51.676;5.812;2023-12-29T04:20:25;33.90;;;32.70;;
58250;SDS011;51449;51.676;5.812;2023-12-29T04:22:47;32.03;;;30.50;;
58250;SDS011;51449;51.676;5.812;2023-12-29T04:25:10;36.73;;;34.90;;
58250;SDS011;51449;51.676;5.812;2023-12-29T04:27:32;43.60;;;41.87;;
58250;SDS011;51449;51.676;5.812;2023-12-29T04:29:54;29.40;;;28.27;;
58250;SDS011;51449;51.676;5.812;2023-12-29T04:32:17;28.80;;;27.50;;
58250;SDS011;51449;51.676;5.812;2023-12-29T04:34:38;34.23;;;32.97;;
58250;SDS011;51449;51.676;5.812;2023-12-29T04:37:00;39.30;;;37.60;;
58250;SDS011;51449;51.676;5.812;2023-12-29T04:39:22;28.20;;;27.13;;
58250;SDS011;51449;51.676;5.812;2023-12-29T04:41:44;24.90;;;23.40;;
58250;SDS011;51449;51.676;5.812;2023-12-29T04:44:06;32.37;;;30.87;;
58250;SDS011;51449;51.676;5.812;2023-12-29T04:46:27;31.77;;;30.47;;
58250;SDS011;51449;51.676;5.812;2023-12-29T04:48:49;16.43;;;15.63;;
58250;SDS011;51449;51.676;5.812;2023-12-29T04:51:11;25.20;;;23.90;;
58250;SDS011;51449;51.676;5.812;2023-12-29T04:53:33;27.33;;;26.10;;
58250;SDS011;51449;51.676;5.812;2023-12-29T04:55:55;14.27;;;13.33;;
58250;SDS011;51449;51.676;5.812;2023-12-29T04:58:17;34.90;;;33.60;;
58250;SDS011;51449;51.676;5.812;2023-12-29T05:00:39;39.30;;;37.47;;
58250;SDS011;51449;51.676;5.812;2023-12-29T05:03:01;26.83;;;25.90;;
58250;SDS011;51449;51.676;5.812;2023-12-29T05:05:23;34.47;;;33.27;;
58250;SDS011;51449;51.676;5.812;2023-12-29T05:07:45;26.47;;;25.33;;
58250;SDS011;51449;51.676;5.812;2023-12-29T05:10:07;23.17;;;22.00;;
58250;SDS011;51449;51.676;5.812;2023-12-29T05:12:30;12.37;;;11.67;;
58250;SDS011;51449;51.676;5.812;2023-12-29T05:14:51;31.13;;;29.83;;
58250;SDS011;51449;51.676;5.812;2023-12-29T05:17:13;12.90;;;12.20;;
58250;SDS011;51449;51.676;5.812;2023-12-29T05:19:36;24.97;;;23.97;;
58250;SDS011;51449;51.676;5.812;2023-12-29T05:21:58;31.00;;;29.70;;
58250;SDS011;51449;51.676;5.812;2023-12-29T05:24:19;26.17;;;25.07;;
58250;SDS011;51449;51.676;5.812;2023-12-29T05:26:41;29.33;;;28.30;;
58250;SDS011;51449;51.676;5.812;2023-12-29T05:29:04;17.43;;;16.40;;
58250;SDS011;51449;51.676;5.812;2023-12-29T05:31:25;15.33;;;14.47;;
58250;SDS011;51449;51.676;5.812;2023-12-29T05:33:48;13.67;;;12.90;;
58250;SDS011;51449;51.676;5.812;2023-12-29T05:36:10;19.77;;;18.90;;
58250;SDS011;51449;51.676;5.812;2023-12-29T05:38:32;16.53;;;15.93;;
58250;SDS011;51449;51.676;5.812;2023-12-29T05:40:54;17.33;;;16.43;;
58250;SDS011;51449;51.676;5.812;2023-12-29T05:43:17;19.03;;;17.83;;
58250;SDS011;51449;51.676;5.812;2023-12-29T05:45:40;34.72;;;33.13;;
58250;SDS011;51449;51.676;5.812;2023-12-29T05:48:02;15.97;;;14.93;;
58250;SDS011;51449;51.676;5.812;2023-12-29T05:50:25;18.23;;;17.47;;
58250;SDS011;51449;51.676;5.812;2023-12-29T05:52:47;17.00;;;15.93;;
58250;SDS011;51449;51.676;5.812;2023-12-29T05:55:13;23.67;;;22.80;;
58250;SDS011;51449;51.676;5.812;2023-12-29T05:57:35;20.13;;;19.37;;
58250;SDS011;51449;51.676;5.812;2023-12-29T05:59:56;13.87;;;13.13;;
58250;SDS011;51449;51.676;5.812;2023-12-29T06:02:18;15.23;;;14.53;;
58250;SDS011;51449;51.676;5.812;2023-12-29T06:04:40;21.10;;;19.50;;
58250;SDS011;51449;51.676;5.812;2023-12-29T06:07:02;20.63;;;19.57;;
58250;SDS011;51449;51.676;5.812;2023-12-29T06:09:25;15.17;;;14.23;;
58250;SDS011;51449;51.676;5.812;2023-12-29T06:11:47;23.20;;;22.07;;
58250;SDS011;51449;51.676;5.812;2023-12-29T06:14:09;29.90;;;28.77;;
58250;SDS011;51449;51.676;5.812;2023-12-29T06:16:31;39.60;;;38.23;;
58250;SDS011;51449;51.676;5.812;2023-12-29T06:18:53;26.23;;;25.23;;
58250;SDS011;51449;51.676;5.812;2023-12-29T06:21:15;12.57;;;11.63;;
58250;SDS011;51449;51.676;5.812;2023-12-29T06:23:37;31.53;;;30.37;;
58250;SDS011;51449;51.676;5.812;2023-12-29T06:25:59;37.97;;;36.27;;
58250;SDS011;51449;51.676;5.812;2023-12-29T06:28:21;15.70;;;14.80;;
58250;SDS011;51449;51.676;5.812;2023-12-29T06:30:43;29.50;;;28.33;;
58250;SDS011;51449;51.676;5.812;2023-12-29T06:33:05;28.17;;;26.93;;
58250;SDS011;51449;51.676;5.812;2023-12-29T06:35:27;37.03;;;35.63;;
58250;SDS011;51449;51.676;5.812;2023-12-29T06:37:50;42.03;;;40.53;;
58250;SDS011;51449;51.676;5.812;2023-12-29T06:40:12;36.53;;;34.37;;
58250;SDS011;51449;51.676;5.812;2023-12-29T06:42:34;27.43;;;26.50;;
58250;SDS011;51449;51.676;5.812;2023-12-29T06:44:57;28.67;;;27.53;;
58250;SDS011;51449;51.676;5.812;2023-12-29T06:47:19;28.40;;;27.23;;
58250;SDS011;51449;51.676;5.812;2023-12-29T06:49:40;18.20;;;17.00;;
58250;SDS011;51449;51.676;5.812;2023-12-29T06:52:03;31.73;;;29.37;;
58250;SDS011;51449;51.676;5.812;2023-12-29T06:54:25;29.10;;;28.10;;
58250;SDS011;51449;51.676;5.812;2023-12-29T06:56:47;16.27;;;15.27;;
58250;SDS011;51449;51.676;5.812;2023-12-29T06:59:10;17.10;;;16.23;;
58250;SDS011;51449;51.676;5.812;2023-12-29T07:01:31;14.53;;;13.87;;
58250;SDS011;51449;51.676;5.812;2023-12-29T07:03:53;15.03;;;13.63;;
58250;SDS011;51449;51.676;5.812;2023-12-29T07:06:15;11.93;;;11.47;;
58250;SDS011;51449;51.676;5.812;2023-12-29T07:08:37;15.03;;;14.37;;
58250;SDS011;51449;51.676;5.812;2023-12-29T07:10:59;30.60;;;29.60;;
58250;SDS011;51449;51.676;5.812;2023-12-29T07:13:21;14.20;;;13.30;;
58250;SDS011;51449;51.676;5.812;2023-12-29T07:15:43;15.13;;;14.53;;
58250;SDS011;51449;51.676;5.812;2023-12-29T07:18:05;17.73;;;17.03;;
58250;SDS011;51449;51.676;5.812;2023-12-29T07:20:28;11.80;;;11.07;;
58250;SDS011;51449;51.676;5.812;2023-12-29T07:22:50;13.10;;;12.37;;
58250;SDS011;51449;51.676;5.812;2023-12-29T07:25:12;17.37;;;16.63;;
58250;SDS011;51449;51.676;5.812;2023-12-29T07:27:35;20.17;;;18.97;;
58250;SDS011;51449;51.676;5.812;2023-12-29T07:29:57;14.47;;;13.47;;
58250;SDS011;51449;51.676;5.812;2023-12-29T07:32:19;15.00;;;14.30;;
58250;SDS011;51449;51.676;5.812;2023-12-29T07:34:41;21.23;;;20.10;;
58250;SDS011;51449;51.676;5.812;2023-12-29T07:37:03;20.87;;;19.77;;
58250;SDS011;51449;51.676;5.812;2023-12-29T07:39:25;28.67;;;27.60;;
58250;SDS011;51449;51.676;5.812;2023-12-29T07:41:47;17.63;;;16.83;;
58250;SDS011;51449;51.676;5.812;2023-12-29T07:44:10;20.07;;;19.37;;
58250;SDS011;51449;51.676;5.812;2023-12-29T07:46:36;30.50;;;29.00;;
58250;SDS011;51449;51.676;5.812;2023-12-29T07:49:00;21.10;;;20.30;;
58250;SDS011;51449;51.676;5.812;2023-12-29T07:51:22;28.70;;;27.77;;
58250;SDS011;51449;51.676;5.812;2023-12-29T07:53:44;23.37;;;22.40;;
58250;SDS011;51449;51.676;5.812;2023-12-29T07:56:06;18.20;;;17.60;;
58250;SDS011;51449;51.676;5.812;2023-12-29T07:58:29;27.80;;;26.90;;
58250;SDS011;51449;51.676;5.812;2023-12-29T08:00:51;29.17;;;27.87;;
58250;SDS011;51449;51.676;5.812;2023-12-29T08:03:12;33.53;;;32.00;;
58250;SDS011;51449;51.676;5.812;2023-12-29T08:05:34;29.53;;;28.57;;
58250;SDS011;51449;51.676;5.812;2023-12-29T08:07:56;35.57;;;34.47;;
58250;SDS011;51449;51.676;5.812;2023-12-29T08:10:18;28.07;;;26.97;;
58250;SDS011;51449;51.676;5.812;2023-12-29T08:12:40;18.10;;;17.50;;
58250;SDS011;51449;51.676;5.812;2023-12-29T08:15:02;27.77;;;26.33;;
58250;SDS011;51449;51.676;5.812;2023-12-29T08:17:24;26.27;;;24.93;;
58250;SDS011;51449;51.676;5.812;2023-12-29T08:19:46;37.97;;;36.43;;
58250;SDS011;51449;51.676;5.812;2023-12-29T08:22:08;28.00;;;26.87;;
58250;SDS011;51449;51.676;5.812;2023-12-29T08:24:30;33.77;;;32.57;;
58250;SDS011;51449;51.676;5.812;2023-12-29T08:26:52;34.93;;;33.87;;
58250;SDS011;51449;51.676;5.812;2023-12-29T08:29:14;37.10;;;35.93;;
58250;SDS011;51449;51.676;5.812;2023-12-29T08:31:38;28.35;;;27.35;;
58250;SDS011;51449;51.676;5.812;2023-12-29T08:34:00;40.30;;;39.00;;
58250;SDS011;51449;51.676;5.812;2023-12-29T08:36:22;41.17;;;39.87;;
58250;SDS011;51449;51.676;5.812;2023-12-29T08:38:43;41.27;;;39.43;;
58250;SDS011;51449;51.676;5.812;2023-12-29T08:41:05;39.57;;;38.27;;
58250;SDS011;51449;51.676;5.812;2023-12-29T08:43:27;32.03;;;30.63;;
58250;SDS011;51449;51.676;5.812;2023-12-29T08:45:49;38.33;;;37.00;;
58250;SDS011;51449;51.676;5.812;2023-12-29T08:48:12;48.03;;;46.43;;
58250;SDS011;51449;51.676;5.812;2023-12-29T08:50:33;47.23;;;45.53;;
58250;SDS011;51449;51.676;5.812;2023-12-29T08:52:55;44.00;;;42.63;;
58250;SDS011;51449;51.676;5.812;2023-12-29T08:55:17;52.57;;;50.77;;
58250;SDS011;51449;51.676;5.812;2023-12-29T08:57:39;55.40;;;53.37;;
58250;SDS011;51449;51.676;5.812;2023-12-29T09:00:01;41.67;;;40.37;;
58250;SDS011;51449;51.676;5.812;2023-12-29T09:02:23;55.07;;;53.13;;
58250;SDS011;51449;51.676;5.812;2023-12-29T09:04:45;66.97;;;64.77;;
58250;SDS011;51449;51.676;5.812;2023-12-29T09:07:07;64.53;;;62.50;;
58250;SDS011;51449;51.676;5.812;2023-12-29T09:09:28;62.50;;;60.27;;
58250;SDS011;51449;51.676;5.812;2023-12-29T09:11:50;71.00;;;68.83;;
58250;SDS011;51449;51.676;5.812;2023-12-29T09:14:12;49.87;;;48.07;;
58250;SDS011;51449;51.676;5.812;2023-12-29T09:16:37;61.00;;;59.10;;
58250;SDS011;51449;51.676;5.812;2023-12-29T09:19:03;47.13;;;45.43;;
58250;SDS011;51449;51.676;5.812;2023-12-29T09:21:38;59.50;;;57.60;;
58250;SDS011;51449;51.676;5.812;2023-12-29T09:24:00;52.43;;;50.83;;
58250;SDS011;51449;51.676;5.812;2023-12-29T09:26:22;48.37;;;46.80;;
58250;SDS011;51449;51.676;5.812;2023-12-29T09:28:44;59.60;;;57.63;;
58250;SDS011;51449;51.676;5.812;2023-12-29T09:31:06;37.70;;;36.30;;
58250;SDS011;51449;51.676;5.812;2023-12-29T09:33:28;60.40;;;58.50;;
58250;SDS011;51449;51.676;5.812;2023-12-29T09:35:50;55.10;;;53.27;;
58250;SDS011;51449;51.676;5.812;2023-12-29T09:38:12;40.07;;;38.67;;
58250;SDS011;51449;51.676;5.812;2023-12-29T09:40:36;34.67;;;33.33;;
58250;SDS011;51449;51.676;5.812;2023-12-29T09:42:58;38.17;;;36.97;;
58250;SDS011;51449;51.676;5.812;2023-12-29T09:45:25;29.57;;;28.60;;
58250;SDS011;51449;51.676;5.812;2023-12-29T09:47:48;46.20;;;44.77;;
58250;SDS011;51449;51.676;5.812;2023-12-29T09:50:16;85.57;;;82.87;;
58250;SDS011;51449;51.676;5.812;2023-12-29T09:52:40;57.50;;;55.60;;
58250;SDS011;51449;51.676;5.812;2023-12-29T09:55:02;86.93;;;84.20;;
58250;SDS011;51449;51.676;5.812;2023-12-29T09:57:26;75.30;;;72.90;;
58250;SDS011;51449;51.676;5.812;2023-12-29T09:59:49;64.63;;;62.60;;
58250;SDS011;51449;51.676;5.812;2023-12-29T10:02:14;74.73;;;72.43;;
58250;SDS011;51449;51.676;5.812;2023-12-29T10:04:40;74.77;;;72.43;;
58250;SDS011;51449;51.676;5.812;2023-12-29T10:07:02;63.80;;;61.63;;
58250;SDS011;51449;51.676;5.812;2023-12-29T10:09:29;60.00;;;58.10;;
58250;SDS011;51449;51.676;5.812;2023-12-29T10:11:54;74.60;;;72.03;;
58250;SDS011;51449;51.676;5.812;2023-12-29T10:14:30;75.97;;;73.47;;
58250;SDS011;51449;51.676;5.812;2023-12-29T10:17:19;52.30;;;50.23;;
58250;SDS011;51449;51.676;5.812;2023-12-29T10:25:31;74.80;;;72.50;;
58250;SDS011;51449;51.676;5.812;2023-12-29T10:27:53;90.17;;;87.33;;
58250;SDS011;51449;51.676;5.812;2023-12-29T10:30:17;86.32;;;83.55;;
58250;SDS011;51449;51.676;5.812;2023-12-29T10:32:52;82.53;;;79.95;;
58250;SDS011;51449;51.676;5.812;2023-12-29T10:35:14;85.83;;;83.17;;
58250;SDS011;51449;51.676;5.812;2023-12-29T10:37:36;104.87;;;101.63;;
58250;SDS011;51449;51.676;5.812;2023-12-29T10:39:59;123.27;;;119.43;;
58250;SDS011;51449;51.676;5.812;2023-12-29T10:42:22;92.03;;;89.00;;
58250;SDS011;51449;51.676;5.812;2023-12-29T10:44:45;91.37;;;88.43;;
58250;SDS011;51449;51.676;5.812;2023-12-29T10:47:10;66.60;;;64.57;;
58250;SDS011;51449;51.676;5.812;2023-12-29T10:49:33;58.87;;;56.97;;
58250;SDS011;51449;51.676;5.812;2023-12-29T10:51:56;43.20;;;41.80;;
58250;SDS011;51449;51.676;5.812;2023-12-29T10:54:19;65.27;;;63.10;;
58250;SDS011;51449;51.676;5.812;2023-12-29T10:56:44;54.50;;;52.80;;
58250;SDS011;51449;51.676;5.812;2023-12-29T10:59:06;39.93;;;38.63;;
58250;SDS011;51449;51.676;5.812;2023-12-29T11:01:32;62.07;;;59.97;;
58250;SDS011;51449;51.676;5.812;2023-12-29T11:04:01;60.47;;;58.63;;
58250;SDS011;51449;51.676;5.812;2023-12-29T11:06:26;69.33;;;67.23;;
58250;SDS011;51449;51.676;5.812;2023-12-29T11:08:50;66.90;;;64.83;;
58250;SDS011;51449;51.676;5.812;2023-12-29T11:11:12;46.60;;;45.17;;
58250;SDS011;51449;51.676;5.812;2023-12-29T11:13:34;57.53;;;55.60;;
58250;SDS011;51449;51.676;5.812;2023-12-29T11:15:58;52.10;;;50.28;;
58250;SDS011;51449;51.676;5.812;2023-12-29T11:18:23;71.27;;;69.00;;
58250;SDS011;51449;51.676;5.812;2023-12-29T11:20:46;65.70;;;63.63;;
58250;SDS011;51449;51.676;5.812;2023-12-29T11:23:09;64.60;;;62.20;;
58250;SDS011;51449;51.676;5.812;2023-12-29T11:25:34;67.27;;;65.17;;
58250;SDS011;51449;51.676;5.812;2023-12-29T11:27:56;67.83;;;65.70;;
58250;SDS011;51449;51.676;5.812;2023-12-29T11:30:21;79.77;;;77.10;;
58250;SDS011;51449;51.676;5.812;2023-12-29T11:32:51;98.80;;;95.67;;
58250;SDS011;51449;51.676;5.812;2023-12-29T11:35:23;60.70;;;58.67;;
58250;SDS011;51449;51.676;5.812;2023-12-29T11:40:50;78.87;;;76.43;;
58250;SDS011;51449;51.676;5.812;2023-12-29T11:43:39;76.63;;;74.20;;
58250;SDS011;51449;51.676;5.812;2023-12-29T11:46:01;78.23;;;75.73;;
58250;SDS011;51449;51.676;5.812;2023-12-29T11:53:55;92.57;;;89.70;;
58250;SDS011;51449;51.676;5.812;2023-12-29T11:56:17;68.30;;;66.07;;
58250;SDS011;51449;51.676;5.812;2023-12-29T11:58:39;65.83;;;63.60;;
58250;SDS011;51449;51.676;5.812;2023-12-29T12:01:02;76.13;;;73.43;;
58250;SDS011;51449;51.676;5.812;2023-12-29T12:03:25;75.10;;;72.70;;
58250;SDS011;51449;51.676;5.812;2023-12-29T12:05:50;66.93;;;64.60;;
58250;SDS011;51449;51.676;5.812;2023-12-29T12:08:25;87.20;;;84.10;;
58250;SDS011;51449;51.676;5.812;2023-12-29T12:10:52;69.30;;;67.00;;
58250;SDS011;51449;51.676;5.812;2023-12-29T12:13:32;110.33;;;106.93;;
58250;SDS011;51449;51.676;5.812;2023-12-29T12:16:06;72.50;;;70.00;;
58250;SDS011;51449;51.676;5.812;2023-12-29T12:18:28;70.27;;;67.83;;
58250;SDS011;51449;51.676;5.812;2023-12-29T12:20:51;93.47;;;90.57;;
58250;SDS011;51449;51.676;5.812;2023-12-29T12:23:19;76.80;;;74.20;;
58250;SDS011;51449;51.676;5.812;2023-12-29T12:25:45;76.73;;;74.23;;
58250;SDS011;51449;51.676;5.812;2023-12-29T12:28:08;81.47;;;78.67;;
58250;SDS011;51449;51.676;5.812;2023-12-29T12:30:32;90.88;;;87.93;;
58250;SDS011;51449;51.676;5.812;2023-12-29T12:32:58;94.10;;;91.10;;
58250;SDS011;51449;51.676;5.812;2023-12-29T12:35:22;88.97;;;86.28;;
58250;SDS011;51449;51.676;5.812;2023-12-29T12:37:47;74.13;;;71.83;;
58250;SDS011;51449;51.676;5.812;2023-12-29T12:40:09;62.47;;;60.33;;
58250;SDS011;51449;51.676;5.812;2023-12-29T12:42:38;83.93;;;81.40;;
58250;SDS011;51449;51.676;5.812;2023-12-29T12:45:11;96.73;;;93.73;;
58250;SDS011;51449;51.676;5.812;2023-12-29T12:47:36;97.43;;;94.47;;
58250;SDS011;51449;51.676;5.812;2023-12-29T12:50:05;85.73;;;83.03;;
58250;SDS011;51449;51.676;5.812;2023-12-29T12:52:32;62.07;;;60.07;;
58250;SDS011;51449;51.676;5.812;2023-12-29T12:54:55;70.00;;;67.68;;
58250;SDS011;51449;51.676;5.812;2023-12-29T12:57:18;84.43;;;81.87;;
58250;SDS011;51449;51.676;5.812;2023-12-29T12:59:41;70.05;;;67.88;;
58250;SDS011;51449;51.676;5.812;2023-12-29T13:02:03;61.07;;;59.07;;
58250;SDS011;51449;51.676;5.812;2023-12-29T13:04:27;77.97;;;75.53;;
58250;SDS011;51449;51.676;5.812;2023-12-29T13:06:49;62.43;;;60.53;;
58250;SDS011;51449;51.676;5.812;2023-12-29T13:09:13;61.77;;;59.77;;
58250;SDS011;51449;51.676;5.812;2023-12-29T13:11:40;86.03;;;83.13;;
58250;SDS011;51449;51.676;5.812;2023-12-29T13:14:02;88.03;;;85.27;;
58250;SDS011;51449;51.676;5.812;2023-12-29T13:16:36;81.80;;;79.25;;
58250;SDS011;51449;51.676;5.812;2023-12-29T13:21:50;61.03;;;59.13;;
58250;SDS011;51449;51.676;5.812;2023-12-29T13:24:18;66.60;;;64.33;;
58250;SDS011;51449;51.676;5.812;2023-12-29T13:26:40;68.17;;;66.03;;
58250;SDS011;51449;51.676;5.812;2023-12-29T13:29:02;56.97;;;55.10;;
58250;SDS011;51449;51.676;5.812;2023-12-29T13:31:24;60.67;;;58.77;;
58250;SDS011;51449;51.676;5.812;2023-12-29T13:34:00;43.63;;;42.23;;
58250;SDS011;51449;51.676;5.812;2023-12-29T13:36:32;47.00;;;45.50;;
58250;SDS011;51449;51.676;5.812;2023-12-29T13:39:08;44.87;;;43.47;;
58250;SDS011;51449;51.676;5.812;2023-12-29T13:41:54;38.23;;;37.03;;
58250;SDS011;51449;51.676;5.812;2023-12-29T13:44:17;43.60;;;42.00;;
58250;SDS011;51449;51.676;5.812;2023-12-29T13:46:42;51.17;;;49.47;;
58250;SDS011;51449;51.676;5.812;2023-12-29T13:49:05;41.20;;;39.83;;
58250;SDS011;51449;51.676;5.812;2023-12-29T13:51:28;45.63;;;43.97;;
58250;SDS011;51449;51.676;5.812;2023-12-29T13:53:57;52.93;;;51.20;;
58250;SDS011;51449;51.676;5.812;2023-12-29T13:56:20;69.50;;;67.30;;
58250;SDS011;51449;51.676;5.812;2023-12-29T13:58:42;38.83;;;37.10;;
58250;SDS011;51449;51.676;5.812;2023-12-29T14:01:13;67.50;;;65.20;;
58250;SDS011;51449;51.676;5.812;2023-12-29T14:03:54;58.67;;;56.80;;
58250;SDS011;51449;51.676;5.812;2023-12-29T14:08:51;32.50;;;31.47;;
58250;SDS011;51449;51.676;5.812;2023-12-29T14:11:13;41.17;;;39.77;;
58250;SDS011;51449;51.676;5.812;2023-12-29T14:13:35;28.27;;;27.27;;
58250;SDS011;51449;51.676;5.812;2023-12-29T14:16:07;17.70;;;17.00;;
58250;SDS011;51449;51.676;5.812;2023-12-29T14:21:21;33.83;;;32.70;;
58250;SDS011;51449;51.676;5.812;2023-12-29T14:23:57;22.90;;;22.10;;
58250;SDS011;51449;51.676;5.812;2023-12-29T14:26:39;23.13;;;22.43;;